Time;durP1;ratioP1;P1;durP2;ratioP2;P2;SDS_P1;SDS_P2;PMS_P1;PMS_P2;Temp;Humidity;BMP_temperature;BMP_pressure;BME280_temperature;BME280_humidity;BME280_pressure;Samples;Min_cycle;Max_cycle;Signal;HPM_P1;HPM_P2
2023/03/19 00:00:23;;;;;;;9.73;3.70;;;10.00;98.00;;;;;;5054914;28;20453;-71
2023/03/19 00:02:51;;;;;;;7.03;3.50;;;10.00;98.00;;;;;;5055060;28;20947;-72
2023/03/19 00:05:18;;;;;;;10.70;3.77;;;10.00;98.00;;;;;;5054936;28;20457;-71
2023/03/19 00:07:47;;;;;;;8.20;3.30;;;9.90;98.00;;;;;;5055000;28;20470;-71
2023/03/19 00:10:14;;;;;;;7.40;3.63;;;9.90;98.00;;;;;;5054852;28;20458;-71
2023/03/19 00:12:43;;;;;;;5.40;3.33;;;10.00;98.00;;;;;;5054109;28;20474;-70
2023/03/19 00:15:13;;;;;;;6.13;3.30;;;9.90;98.00;;;;;;5053171;28;20466;-72
2023/03/19 00:17:42;;;;;;;8.33;3.50;;;9.80;98.00;;;;;;5054625;28;20546;-72
2023/03/19 00:20:11;;;;;;;5.93;3.23;;;9.80;98.00;;;;;;5053976;28;20464;-70
2023/03/19 00:22:38;;;;;;;7.10;3.47;;;9.80;98.00;;;;;;5054349;28;20485;-71
2023/03/19 00:25:06;;;;;;;5.50;3.23;;;9.80;98.00;;;;;;5053619;28;20454;-72
2023/03/19 00:27:34;;;;;;;9.33;3.87;;;9.70;98.00;;;;;;5052604;28;20513;-71
2023/03/19 00:30:01;;;;;;;6.40;3.20;;;9.60;98.00;;;;;;5053642;28;20458;-70
2023/03/19 00:32:33;;;;;;;6.93;2.90;;;9.60;98.00;;;;;;5052166;28;21025;-71
2023/03/19 00:35:00;;;;;;;10.40;3.50;;;9.80;98.00;;;;;;5054006;28;20475;-71
2023/03/19 00:37:29;;;;;;;7.87;3.33;;;9.70;98.00;;;;;;5054016;28;20469;-70
2023/03/19 00:39:57;;;;;;;7.93;3.87;;;9.80;98.00;;;;;;5052745;28;20466;-72
2023/03/19 00:42:24;;;;;;;5.90;3.03;;;9.70;98.00;;;;;;5054078;28;20465;-72
2023/03/19 00:44:52;;;;;;;12.40;3.53;;;9.80;98.00;;;;;;5053948;28;20451;-72
2023/03/19 00:47:29;;;;;;;9.50;3.50;;;9.70;98.00;;;;;;5054284;28;20465;-70
2023/03/19 00:49:57;;;;;;;6.87;3.50;;;9.80;98.00;;;;;;5053901;28;20543;-71
2023/03/19 00:52:25;;;;;;;5.93;2.90;;;9.60;98.00;;;;;;5053913;28;20810;-70
2023/03/19 00:54:52;;;;;;;4.80;3.00;;;9.60;98.00;;;;;;5053772;28;20941;-71
2023/03/19 00:57:19;;;;;;;6.47;3.20;;;9.60;98.00;;;;;;5053822;28;20459;-72
2023/03/19 00:59:47;;;;;;;7.30;3.37;;;9.80;98.00;;;;;;5053771;28;20459;-71
2023/03/19 01:02:14;;;;;;;6.60;3.83;;;9.80;98.00;;;;;;5052692;28;20476;-72
2023/03/19 01:04:41;;;;;;;4.93;2.90;;;9.90;98.00;;;;;;5053731;28;20464;-71
2023/03/19 01:07:10;;;;;;;4.50;3.00;;;9.90;98.00;;;;;;5053733;28;20491;-71
2023/03/19 01:09:37;;;;;;;6.53;3.00;;;10.00;98.00;;;;;;5053716;28;20452;-72
2023/03/19 01:12:05;;;;;;;6.93;2.67;;;10.00;98.00;;;;;;5053340;28;20948;-72
2023/03/19 01:14:36;;;;;;;7.40;3.40;;;9.90;98.00;;;;;;5053187;28;20482;-72
2023/03/19 01:17:03;;;;;;;8.70;3.83;;;10.00;98.00;;;;;;5052986;28;20547;-71
2023/03/19 01:19:30;;;;;;;5.23;3.30;;;10.00;98.00;;;;;;5053213;28;20461;-72
2023/03/19 01:21:59;;;;;;;5.00;2.90;;;10.00;98.00;;;;;;5053234;28;20496;-72
2023/03/19 01:24:29;;;;;;;5.43;2.87;;;9.90;98.00;;;;;;5051999;28;20985;-72
2023/03/19 01:26:57;;;;;;;5.87;3.00;;;9.90;98.00;;;;;;5053110;28;20460;-70
2023/03/19 01:29:24;;;;;;;5.07;2.77;;;10.00;98.00;;;;;;5053059;28;20462;-71
2023/03/19 01:31:52;;;;;;;7.63;3.07;;;9.90;98.00;;;;;;5053006;28;20464;-71
2023/03/19 01:34:20;;;;;;;5.00;2.80;;;9.90;98.00;;;;;;5052924;28;20543;-72
2023/03/19 01:36:47;;;;;;;4.03;2.30;;;10.00;98.00;;;;;;5052958;28;20457;-71
2023/03/19 01:39:15;;;;;;;5.80;2.77;;;10.20;98.00;;;;;;5053017;28;20461;-71
2023/03/19 01:41:43;;;;;;;5.10;2.80;;;10.20;98.00;;;;;;5052857;28;20815;-73
2023/03/19 01:44:26;;;;;;;6.77;3.60;;;10.40;98.00;;;;;;5052934;28;20459;-71
2023/03/19 01:57:26;;;;;;;3.50;2.20;;;10.50;98.00;;;;;;5130454;27;20539;-71
2023/03/19 01:59:59;;;;;;;3.90;2.40;;;9.90;98.00;;;;;;5109685;28;20466;-71
2023/03/19 02:02:30;;;;;;;5.00;3.13;;;9.90;98.00;;;;;;5109894;28;20462;-70
2023/03/19 02:05:01;;;;;;;8.10;3.03;;;9.90;98.00;;;;;;5109649;28;20505;-70
2023/03/19 02:07:30;;;;;;;12.73;3.20;;;9.90;98.00;;;;;;5109761;28;20487;-70
2023/03/19 02:09:59;;;;;;;7.97;3.77;;;10.10;98.00;;;;;;5109273;28;20489;-70
2023/03/19 02:12:28;;;;;;;7.80;3.33;;;10.20;98.00;;;;;;5109488;28;20569;-71
2023/03/19 02:14:55;;;;;;;8.63;3.63;;;10.30;98.00;;;;;;5109281;28;20450;-70
2023/03/19 02:17:22;;;;;;;8.37;3.83;;;10.30;98.00;;;;;;5109422;28;20458;-69
2023/03/19 02:19:55;;;;;;;8.23;4.07;;;10.20;98.00;;;;;;5109078;28;20462;-69
2023/03/19 02:22:26;;;;;;;6.07;3.17;;;10.00;98.00;;;;;;5109346;28;20460;-71
2023/03/19 02:24:59;;;;;;;6.50;3.43;;;10.10;98.00;;;;;;5109125;28;20954;-70
2023/03/19 02:27:27;;;;;;;10.93;3.30;;;10.20;98.00;;;;;;5107949;28;20447;-70
2023/03/19 02:29:55;;;;;;;5.37;3.13;;;10.30;98.00;;;;;;5109093;28;20448;-70
2023/03/19 02:32:22;;;;;;;8.37;3.60;;;10.30;98.00;;;;;;5109174;28;20459;-69
2023/03/19 02:34:49;;;;;;;7.47;2.93;;;10.30;98.00;;;;;;5108999;28;20962;-69
2023/03/19 02:37:20;;;;;;;6.47;3.10;;;10.10;98.00;;;;;;5109101;28;20454;-69
2023/03/19 02:39:55;;;;;;;6.20;2.97;;;10.10;98.00;;;;;;5108954;28;20803;-70
2023/03/19 02:42:28;;;;;;;8.20;3.60;;;10.00;98.00;;;;;;5107976;28;20479;-70
2023/03/19 02:44:55;;;;;;;6.43;3.37;;;9.90;98.00;;;;;;5108794;28;20455;-70
2023/03/19 02:47:23;;;;;;;6.93;3.80;;;9.80;98.00;;;;;;5107671;28;20992;-70
2023/03/19 02:49:50;;;;;;;6.17;3.60;;;9.80;98.00;;;;;;5108896;28;20957;-68
2023/03/19 02:52:19;;;;;;;5.57;2.67;;;9.80;98.00;;;;;;5108887;28;20455;-71
2023/03/19 02:54:47;;;;;;;8.63;3.07;;;9.70;98.00;;;;;;5108788;28;20977;-73
2023/03/19 02:57:14;;;;;;;6.90;3.43;;;9.90;98.00;;;;;;5101618;28;20463;-71
2023/03/19 02:59:45;;;;;;;5.50;3.40;;;10.10;98.00;;;;;;5095348;28;20794;-72
2023/03/19 03:02:22;;;;;;;4.97;2.63;;;10.10;98.00;;;;;;5095456;28;20463;-72
2023/03/19 03:04:50;;;;;;;8.93;3.43;;;10.00;98.00;;;;;;5093894;28;20451;-72
2023/03/19 03:07:17;;;;;;;8.17;3.90;;;10.00;98.00;;;;;;5093519;28;20480;-71
2023/03/19 03:09:44;;;;;;;5.90;3.10;;;10.20;98.00;;;;;;5094799;28;20476;-71
2023/03/19 03:12:12;;;;;;;7.90;3.37;;;10.10;98.00;;;;;;5094968;28;20827;-71
2023/03/19 03:14:40;;;;;;;7.70;3.07;;;9.90;98.00;;;;;;5094594;28;20456;-73
2023/03/19 03:17:09;;;;;;;5.00;2.80;;;9.80;98.00;;;;;;5094536;28;20805;-72
2023/03/19 03:19:38;;;;;;;9.30;2.50;;;9.60;98.00;;;;;;5094558;28;20456;-71
2023/03/19 03:22:05;;;;;;;4.73;2.47;;;9.60;98.00;;;;;;5094631;28;20540;-71
2023/03/19 03:24:32;;;;;;;6.70;2.90;;;9.60;98.00;;;;;;5094604;28;20857;-71
2023/03/19 03:26:59;;;;;;;5.70;2.90;;;9.70;98.00;;;;;;5093021;28;20487;-71
2023/03/19 03:29:26;;;;;;;7.00;2.97;;;9.70;98.00;;;;;;5094416;28;20454;-71
2023/03/19 03:31:53;;;;;;;4.43;3.00;;;9.70;98.00;;;;;;5094320;28;20827;-74
2023/03/19 03:34:22;;;;;;;5.93;3.43;;;9.80;98.00;;;;;;5094577;28;20916;-71
2023/03/19 03:36:50;;;;;;;5.80;2.83;;;9.80;98.00;;;;;;5094290;28;20470;-72
2023/03/19 03:39:18;;;;;;;5.00;2.97;;;9.70;98.00;;;;;;5094264;28;20950;-72
2023/03/19 03:41:46;;;;;;;6.00;3.30;;;10.00;98.00;;;;;;5094068;28;20535;-73
2023/03/19 03:44:13;;;;;;;6.17;2.90;;;10.20;98.00;;;;;;5094128;28;20449;-72
2023/03/19 03:46:42;;;;;;;4.23;2.70;;;10.10;98.00;;;;;;5093938;28;20516;-72
2023/03/19 03:49:10;;;;;;;5.60;3.33;;;10.00;98.00;;;;;;5094219;28;20452;-70
2023/03/19 03:51:38;;;;;;;5.17;3.03;;;10.00;98.00;;;;;;5094212;28;20455;-71
2023/03/19 03:54:06;;;;;;;5.60;3.37;;;9.90;98.00;;;;;;5094226;28;20455;-71
2023/03/19 03:56:33;;;;;;;6.43;2.90;;;9.80;98.00;;;;;;5093763;28;20467;-72
2023/03/19 03:59:02;;;;;;;4.87;3.10;;;9.80;98.00;;;;;;5094292;28;20803;-71
2023/03/19 04:01:29;;;;;;;8.50;2.90;;;9.70;98.00;;;;;;5093906;28;20529;-72
2023/03/19 04:03:57;;;;;;;4.77;2.87;;;9.60;98.00;;;;;;5094057;28;20452;-71
2023/03/19 04:06:27;;;;;;;6.00;2.70;;;9.80;98.00;;;;;;5092251;28;20483;-72
2023/03/19 04:08:55;;;;;;;14.93;3.20;;;10.00;98.00;;;;;;5091538;28;20455;-72
2023/03/19 04:11:23;;;;;;;7.07;3.37;;;9.90;98.00;;;;;;5093344;28;20452;-71
2023/03/19 04:13:51;;;;;;;6.40;3.17;;;9.90;98.00;;;;;;5093526;28;20581;-72
2023/03/19 04:16:18;;;;;;;6.83;3.20;;;9.80;98.00;;;;;;5093455;28;20874;-71
2023/03/19 04:18:45;;;;;;;6.20;2.70;;;9.70;98.00;;;;;;5093393;28;20461;-72
2023/03/19 04:21:13;;;;;;;6.77;2.93;;;9.70;98.00;;;;;;5093506;28;20931;-73
2023/03/19 04:23:40;;;;;;;4.77;2.80;;;9.80;98.00;;;;;;5093354;28;20455;-71
2023/03/19 04:26:10;;;;;;;6.37;3.37;;;9.90;98.00;;;;;;5091949;28;21082;-71
2023/03/19 04:28:37;;;;;;;4.70;2.87;;;10.10;98.00;;;;;;5093468;28;20456;-71
2023/03/19 04:31:06;;;;;;;6.53;3.83;;;10.20;98.00;;;;;;5092020;28;20463;-72
2023/03/19 04:33:36;;;;;;;6.97;2.70;;;10.10;98.00;;;;;;5093501;28;20463;-71
2023/03/19 04:36:04;;;;;;;7.60;3.10;;;10.00;98.00;;;;;;5093247;28;20465;-72
2023/03/19 04:38:34;;;;;;;5.80;3.20;;;10.00;98.00;;;;;;5093026;28;20460;-72
2023/03/19 04:41:01;;;;;;;7.20;3.23;;;9.90;98.00;;;;;;5071566;28;20962;-71
2023/03/19 04:43:30;;;;;;;6.13;3.30;;;9.80;98.00;;;;;;5072902;28;20492;-71
2023/03/19 04:45:57;;;;;;;4.70;2.80;;;9.70;98.00;;;;;;5072750;28;20488;-71
2023/03/19 04:48:25;;;;;;;3.80;3.10;;;9.60;98.00;;;;;;5072779;28;21002;-71
2023/03/19 04:50:55;;;;;;;5.03;3.00;;;9.70;98.00;;;;;;5072838;28;20457;-71
2023/03/19 04:53:23;;;;;;;7.63;3.20;;;9.70;98.00;;;;;;5072940;28;20452;-72
2023/03/19 04:55:53;;;;;;;9.77;3.90;;;9.50;98.00;;;;;;5072376;28;20563;-71
2023/03/19 04:58:22;;;;;;;6.03;3.00;;;9.60;98.00;;;;;;5072888;28;20459;-72
2023/03/19 05:00:51;;;;;;;5.03;3.10;;;9.50;98.00;;;;;;5071289;28;20935;-72
2023/03/19 05:03:18;;;;;;;5.00;2.77;;;9.60;98.00;;;;;;5072546;28;20951;-72
2023/03/19 05:05:45;;;;;;;5.97;3.00;;;9.50;98.00;;;;;;5072235;28;20955;-72
2023/03/19 05:08:13;;;;;;;6.07;3.20;;;9.50;98.00;;;;;;5072534;28;20476;-72
2023/03/19 05:10:40;;;;;;;5.40;3.10;;;9.40;98.00;;;;;;5071960;28;20510;-70
2023/03/19 05:13:07;;;;;;;4.57;3.03;;;9.30;98.00;;;;;;5072276;28;20461;-71
2023/03/19 05:15:35;;;;;;;4.53;2.50;;;9.20;98.00;;;;;;5072053;28;20452;-71
2023/03/19 05:18:04;;;;;;;6.60;3.00;;;9.20;98.00;;;;;;5072171;28;20460;-72
2023/03/19 05:20:32;;;;;;;4.53;2.93;;;9.10;98.00;;;;;;5071789;28;20457;-71
2023/03/19 05:22:59;;;;;;;6.57;3.07;;;9.10;98.00;;;;;;5070901;28;20510;-72
2023/03/19 05:25:26;;;;;;;5.07;2.80;;;9.20;98.00;;;;;;5072173;28;20810;-71
2023/03/19 05:27:53;;;;;;;5.70;2.83;;;9.20;98.00;;;;;;5072115;28;20492;-72
2023/03/19 05:30:22;;;;;;;5.17;3.00;;;9.30;98.00;;;;;;5072096;28;20459;-71
2023/03/19 05:32:49;;;;;;;9.10;2.97;;;9.30;98.00;;;;;;5072225;28;20480;-72
2023/03/19 05:35:19;;;;;;;4.10;2.90;;;9.30;98.00;;;;;;5072179;28;20453;-72
2023/03/19 05:37:46;;;;;;;4.80;3.13;;;9.40;98.00;;;;;;5072109;28;20469;-72
2023/03/19 05:40:13;;;;;;;4.80;2.80;;;9.50;98.00;;;;;;5072147;28;20470;-71
2023/03/19 05:42:40;;;;;;;6.43;3.10;;;9.60;98.00;;;;;;5072139;28;20475;-72
2023/03/19 05:45:08;;;;;;;5.47;3.67;;;9.60;98.00;;;;;;5072018;28;20460;-72
2023/03/19 05:47:35;;;;;;;4.63;3.03;;;9.70;98.00;;;;;;5071953;28;20492;-72
2023/03/19 05:50:03;;;;;;;6.30;3.37;;;9.60;98.00;;;;;;5072007;28;20547;-73
2023/03/19 05:52:31;;;;;;;3.60;2.57;;;9.50;98.00;;;;;;5072142;28;20460;-71
2023/03/19 05:54:58;;;;;;;8.97;2.83;;;9.40;98.00;;;;;;5071893;28;20520;-72
2023/03/19 05:57:26;;;;;;;4.73;3.00;;;9.60;98.00;;;;;;5072143;28;20457;-72
2023/03/19 05:59:53;;;;;;;9.17;3.47;;;9.50;98.00;;;;;;5071592;28;20939;-72
2023/03/19 06:02:20;;;;;;;5.00;3.00;;;9.40;98.00;;;;;;5071666;28;20464;-72
2023/03/19 06:04:47;;;;;;;6.07;3.47;;;9.40;98.00;;;;;;5071754;28;20814;-72
2023/03/19 06:07:14;;;;;;;9.40;2.97;;;9.50;98.00;;;;;;5071536;28;21061;-72
2023/03/19 06:09:44;;;;;;;4.20;2.87;;;9.60;98.00;;;;;;5071560;28;20457;-71
2023/03/19 06:12:12;;;;;;;11.60;3.33;;;9.70;98.00;;;;;;5071534;28;20489;-71
2023/03/19 06:14:46;;;;;;;5.30;3.30;;;9.70;98.00;;;;;;5070503;28;20456;-72
2023/03/19 06:17:14;;;;;;;4.80;3.20;;;9.70;98.00;;;;;;5071637;28;20475;-71
2023/03/19 06:19:41;;;;;;;4.73;3.00;;;9.60;98.00;;;;;;5071672;28;20467;-71
2023/03/19 06:22:08;;;;;;;7.30;2.90;;;9.60;98.00;;;;;;5071472;28;20525;-72
2023/03/19 06:24:35;;;;;;;7.13;3.57;;;9.60;98.00;;;;;;5071615;28;20555;-71
2023/03/19 06:27:04;;;;;;;6.77;3.50;;;9.70;98.00;;;;;;5071439;28;20808;-71
2023/03/19 06:29:31;;;;;;;6.40;3.63;;;9.90;98.00;;;;;;5071482;28;20466;-70
2023/03/19 06:31:59;;;;;;;6.23;2.63;;;10.00;98.00;;;;;;5072423;28;20860;-72
2023/03/19 06:34:26;;;;;;;6.10;3.60;;;10.10;98.00;;;;;;5075587;28;20451;-71
2023/03/19 06:36:56;;;;;;;6.30;3.00;;;10.20;98.00;;;;;;5075221;28;21003;-71
2023/03/19 06:39:24;;;;;;;5.23;2.90;;;10.30;98.00;;;;;;5075569;28;20457;-72
2023/03/19 06:41:51;;;;;;;4.60;3.13;;;10.10;98.00;;;;;;5075044;28;20457;-71
2023/03/19 06:44:21;;;;;;;5.87;3.27;;;9.90;98.00;;;;;;5075146;28;20453;-71
2023/03/19 06:46:48;;;;;;;4.00;2.90;;;9.80;98.00;;;;;;5073143;28;20489;-73
2023/03/19 06:49:15;;;;;;;9.13;3.47;;;9.70;98.00;;;;;;5074546;28;20908;-72
2023/03/19 06:51:42;;;;;;;6.30;3.43;;;9.70;98.00;;;;;;5074179;28;20447;-72
2023/03/19 06:54:10;;;;;;;7.97;3.80;;;9.70;98.00;;;;;;5075341;28;20863;-73
2023/03/19 06:56:37;;;;;;;8.43;4.30;;;9.70;98.00;;;;;;5074748;28;20966;-73
2023/03/19 06:59:04;;;;;;;5.57;3.13;;;9.80;98.00;;;;;;5075014;28;21111;-72
2023/03/19 07:01:33;;;;;;;14.23;3.97;;;9.80;98.00;;;;;;5074631;28;20457;-67
2023/03/19 07:04:00;;;;;;;6.10;3.20;;;9.80;98.00;;;;;;5074641;28;20463;-67
2023/03/19 07:06:28;;;;;;;9.70;3.50;;;9.80;98.00;;;;;;5074434;28;20460;-67
2023/03/19 07:08:55;;;;;;;6.10;3.10;;;9.80;98.00;;;;;;5074707;28;21015;-68
2023/03/19 07:11:30;;;;;;;6.00;3.67;;;10.00;98.00;;;;;;5074598;28;20460;-67
2023/03/19 07:13:57;;;;;;;7.60;3.33;;;10.10;98.00;;;;;;5073507;28;20460;-67
2023/03/19 07:16:24;;;;;;;8.20;3.57;;;10.30;98.00;;;;;;5074677;28;20479;-67
2023/03/19 07:18:53;;;;;;;3.80;3.00;;;10.50;98.00;;;;;;5074224;28;20868;-67
2023/03/19 07:21:20;;;;;;;9.20;3.83;;;10.60;98.00;;;;;;5074478;28;20461;-68
2023/03/19 07:23:49;;;;;;;6.10;3.57;;;10.70;98.00;;;;;;5074498;28;20471;-68
2023/03/19 07:26:17;;;;;;;6.07;4.13;;;10.60;98.00;;;;;;5074205;28;20450;-67
2023/03/19 07:28:44;;;;;;;6.70;3.67;;;10.70;98.00;;;;;;5074139;28;20454;-67
2023/03/19 07:31:12;;;;;;;7.60;3.87;;;10.60;98.00;;;;;;5073711;28;20457;-67
2023/03/19 07:33:39;;;;;;;6.03;3.43;;;10.60;98.00;;;;;;5074213;28;20460;-67
2023/03/19 07:36:10;;;;;;;11.03;3.83;;;10.70;98.00;;;;;;5073023;28;20452;-67
2023/03/19 07:38:37;;;;;;;9.27;4.33;;;10.70;98.00;;;;;;5074166;28;20934;-67
2023/03/19 07:41:04;;;;;;;7.83;3.47;;;10.90;98.00;;;;;;5074001;28;20465;-67
2023/03/19 07:43:32;;;;;;;9.10;4.77;;;11.10;98.00;;;;;;5074002;28;20458;-67
2023/03/19 07:46:00;;;;;;;7.37;3.60;;;11.30;98.00;;;;;;5073885;28;21014;-67
2023/03/19 07:48:27;;;;;;;7.40;3.70;;;11.40;98.00;;;;;;5073034;28;20482;-68
2023/03/19 07:50:54;;;;;;;7.63;3.90;;;11.40;98.00;;;;;;5073507;28;20880;-67
2023/03/19 07:53:23;;;;;;;6.10;3.80;;;11.30;98.00;;;;;;5073497;28;20461;-67
2023/03/19 07:55:50;;;;;;;7.40;4.07;;;11.30;98.00;;;;;;5073230;28;20462;-67
2023/03/19 07:58:18;;;;;;;6.30;3.93;;;11.40;98.00;;;;;;5073244;28;20462;-67
2023/03/19 08:00:46;;;;;;;13.03;4.70;;;11.60;98.00;;;;;;5072119;28;20462;-67
2023/03/19 08:03:14;;;;;;;8.50;4.10;;;11.70;98.00;;;;;;5073266;28;20936;-67
2023/03/19 08:05:41;;;;;;;11.13;4.90;;;11.80;98.00;;;;;;5072861;28;20466;-67
2023/03/19 08:08:11;;;;;;;6.90;3.60;;;11.90;98.00;;;;;;5072700;28;20557;-67
2023/03/19 08:10:40;;;;;;;9.00;4.33;;;11.90;98.00;;;;;;5072911;28;20469;-67
2023/03/19 08:13:07;;;;;;;10.20;4.43;;;12.00;98.00;;;;;;5072818;28;21016;-67
2023/03/19 08:15:34;;;;;;;6.83;3.90;;;11.90;98.00;;;;;;5072738;28;20834;-67
2023/03/19 08:18:03;;;;;;;5.20;3.47;;;11.80;98.00;;;;;;5072569;28;20510;-67
2023/03/19 08:20:31;;;;;;;4.73;3.13;;;11.80;98.00;;;;;;5071528;28;20456;-67
2023/03/19 08:22:58;;;;;;;8.60;3.87;;;11.90;98.00;;;;;;5072502;28;20461;-67
2023/03/19 08:25:26;;;;;;;10.57;4.07;;;11.90;98.00;;;;;;5074573;28;20584;-65
2023/03/19 08:28:01;;;;;;;7.47;3.50;;;12.10;98.00;;;;;;5107414;22;20488;-87
2023/03/19 08:30:28;;;;;;;8.77;4.30;;;12.20;98.00;;;;;;5101240;27;21042;-87
2023/03/19 08:32:55;;;;;;;9.67;4.40;;;12.30;98.00;;;;;;5110316;27;20477;-87
2023/03/19 08:35:22;;;;;;;6.80;4.10;;;12.40;98.00;;;;;;5102211;28;20470;-88
2023/03/19 08:37:50;;;;;;;8.77;4.30;;;12.40;98.00;;;;;;5115902;27;20453;-91
2023/03/19 08:40:17;;;;;;;9.00;4.20;;;12.40;98.00;;;;;;5113518;28;20495;-90
2023/03/19 08:42:44;;;;;;;9.17;4.47;;;12.50;98.00;;;;;;5113614;28;20452;-91
2023/03/19 08:45:14;;;;;;;11.27;4.50;;;12.60;98.00;;;;;;5112919;28;20482;-90
2023/03/19 08:47:42;;;;;;;6.03;3.37;;;12.80;98.00;;;;;;5113705;28;20477;-90
2023/03/19 08:50:11;;;;;;;6.10;3.13;;;12.90;98.00;;;;;;5104802;28;20471;-90
2023/03/19 08:52:39;;;;;;;4.40;2.70;;;12.80;98.00;;;;;;5092631;28;20465;-91
2023/03/19 08:55:08;;;;;;;4.67;2.60;;;12.90;98.00;;;;;;5091209;28;20568;-91
2023/03/19 08:57:35;;;;;;;6.03;3.23;;;12.90;98.00;;;;;;5092833;28;20463;-90
2023/03/19 09:00:04;;;;;;;4.47;2.50;;;12.90;98.00;;;;;;5092545;28;20452;-88
2023/03/19 09:02:33;;;;;;;6.63;3.37;;;13.10;98.00;;;;;;5093267;28;20470;-87
2023/03/19 09:05:00;;;;;;;7.07;3.40;;;13.20;98.00;;;;;;5093026;28;20531;-88
2023/03/19 09:07:27;;;;;;;8.33;3.70;;;13.30;98.00;;;;;;5092401;28;20485;-88
2023/03/19 09:09:54;;;;;;;7.27;3.53;;;13.50;98.00;;;;;;5092993;28;20513;-90
2023/03/19 09:12:21;;;;;;;5.57;3.10;;;13.50;98.00;;;;;;5092436;28;20450;-90
2023/03/19 09:14:48;;;;;;;4.00;2.57;;;13.50;98.00;;;;;;5092621;28;20471;-89
2023/03/19 09:17:22;;;;;;;5.57;3.50;;;13.60;98.00;;;;;;5091912;28;20443;-91
2023/03/19 09:19:51;;;;;;;3.07;2.27;;;13.60;98.00;;;;;;5093165;28;20448;-91
2023/03/19 09:22:18;;;;;;;4.33;2.53;;;13.70;98.00;;;;;;5107046;27;20464;-91
2023/03/19 09:24:45;;;;;;;3.77;2.70;;;13.60;98.00;;;;;;5107132;27;20479;-90
2023/03/19 09:27:13;;;;;;;5.30;3.03;;;13.50;98.00;;;;;;5116912;27;20457;-91
2023/03/19 09:29:40;;;;;;;5.60;2.50;;;13.60;98.00;;;;;;5122360;27;20490;-91
2023/03/19 09:32:07;;;;;;;4.83;2.70;;;13.70;98.00;;;;;;5121126;27;20528;-87
2023/03/19 09:34:34;;;;;;;9.33;2.87;;;13.70;98.00;;;;;;5119855;27;20482;-89
2023/03/19 09:37:17;;;;;;;5.60;2.63;;;13.90;98.00;;;;;;5112856;28;20583;-90
2023/03/19 09:39:47;;;;;;;4.23;2.37;;;14.10;98.00;;;;;;5113163;28;20486;-91
2023/03/19 09:42:27;;;;;;;3.50;2.50;;;14.30;98.00;;;;;;5113194;28;20948;-93
2023/03/19 09:45:14;;;;;;;3.83;2.60;;;14.40;98.00;;;;;;5113107;28;20530;-92
2023/03/19 09:47:56;;;;;;;4.57;2.50;;;14.70;98.00;;;;;;5113183;28;20486;-92
2023/03/19 09:50:53;;;;;;;4.13;2.40;;;14.90;98.00;;;;;;5113063;28;20475;-93
2023/03/19 09:53:56;;;;;;;5.57;2.20;;;14.90;98.00;;;;;;5113130;28;20460;-92
2023/03/19 09:56:41;;;;;;;4.07;2.50;;;15.10;98.00;;;;;;5113366;28;20486;-93
2023/03/19 09:59:11;;;;;;;2.87;2.00;;;15.40;98.00;;;;;;5113174;28;20458;-93
2023/03/19 10:01:50;;;;;;;2.70;1.80;;;15.80;98.00;;;;;;5114565;28;20498;-93
2023/03/19 10:14:43;;;;;;;2.50;1.93;;;17.40;98.00;;;;;;5123086;22;20999;-66
2023/03/19 10:17:16;;;;;;;3.03;1.80;;;17.80;98.00;;;;;;5115346;28;20458;-66
2023/03/19 10:19:48;;;;;;;4.50;2.90;;;18.00;98.00;;;;;;5115411;28;20454;-66
2023/03/19 10:22:19;;;;;;;3.30;2.10;;;18.30;98.00;;;;;;5115377;28;20455;-65
2023/03/19 10:24:48;;;;;;;2.90;2.07;;;18.50;94.90;;;;;;5115258;28;20450;-64
2023/03/19 10:27:17;;;;;;;3.80;2.10;;;18.70;94.20;;;;;;5115391;28;20965;-65
2023/03/19 10:29:48;;;;;;;4.27;2.40;;;19.00;95.10;;;;;;5115120;28;21024;-65
2023/03/19 10:32:19;;;;;;;3.63;2.00;;;19.00;92.20;;;;;;5115427;28;20519;-65
2023/03/19 10:34:49;;;;;;;3.33;2.40;;;18.80;89.30;;;;;;5115154;28;20552;-65
2023/03/19 10:37:19;;;;;;;4.93;2.30;;;18.50;91.60;;;;;;5115130;28;20449;-65
2023/03/19 10:39:48;;;;;;;3.30;2.37;;;18.50;92.10;;;;;;5106043;28;20825;-66
2023/03/19 10:42:40;;;;;;;4.47;2.50;;;18.80;92.70;;;;;;5308173;22;20501;-64
2023/03/19 10:45:23;;;;;;;3.63;2.40;;;19.20;91.20;;;;;;5099336;28;20880;-64
2023/03/19 10:47:51;;;;;;;4.03;2.00;;;19.50;91.90;;;;;;5105483;28;20482;-64
2023/03/19 10:52:53;;;;;;;4.03;2.10;;;20.00;89.40;;;;;;5095609;28;20460;-64
2023/03/19 10:55:25;;;;;;;3.87;2.10;;;20.10;90.20;;;;;;5094280;28;20809;-63
2023/03/19 10:58:02;;;;;;;1.93;1.80;;;20.10;89.80;;;;;;5094388;28;20941;-64
2023/03/19 11:00:34;;;;;;;4.10;2.53;;;20.30;88.80;;;;;;5094162;28;20520;-64
2023/03/19 11:03:04;;;;;;;4.70;2.20;;;20.30;87.80;;;;;;5094114;28;20460;-63
2023/03/19 11:05:34;;;;;;;2.57;2.10;;;20.10;86.70;;;;;;5094407;28;20470;-64
2023/03/19 11:08:03;;;;;;;4.97;2.50;;;19.50;87.70;;;;;;5094421;28;20490;-63
2023/03/19 11:10:32;;;;;;;2.27;1.90;;;19.30;89.40;;;;;;5094180;28;20459;-63
2023/03/19 11:13:03;;;;;;;3.73;2.30;;;19.30;88.80;;;;;;5093895;28;20460;-64
2023/03/19 11:15:39;;;;;;;3.57;2.43;;;19.20;87.80;;;;;;5093869;28;20454;-64
2023/03/19 11:18:09;;;;;;;4.07;2.10;;;19.10;88.70;;;;;;5093335;28;20444;-63
2023/03/19 11:20:38;;;;;;;4.23;2.13;;;19.30;88.00;;;;;;5093565;28;20467;-63
2023/03/19 11:23:11;;;;;;;2.47;1.83;;;19.50;88.90;;;;;;5093749;28;20513;-64
2023/03/19 11:25:40;;;;;;;3.47;2.00;;;19.60;89.50;;;;;;5093935;28;20459;-63
2023/03/19 11:28:11;;;;;;;3.97;2.40;;;19.80;90.00;;;;;;5093777;28;20487;-63
2023/03/19 11:30:51;;;;;;;4.77;2.30;;;19.90;87.80;;;;;;5093553;28;20471;-63
2023/03/19 11:33:49;;;;;;;2.97;2.10;;;19.70;88.40;;;;;;5093845;28;20475;-63
2023/03/19 11:36:20;;;;;;;2.83;2.00;;;19.70;87.90;;;;;;5093573;28;20452;-63
2023/03/19 11:39:13;;;;;;;4.30;2.30;;;19.70;88.10;;;;;;5093597;28;20462;-63
2023/03/19 11:41:56;;;;;;;2.53;2.00;;;19.90;88.70;;;;;;5088532;28;20452;-63
2023/03/19 11:44:28;;;;;;;3.57;2.20;;;20.10;90.30;;;;;;5093819;28;20460;-63
2023/03/19 11:47:06;;;;;;;4.53;2.63;;;20.10;87.90;;;;;;5093490;28;20448;-64
2023/03/19 11:49:44;;;;;;;6.13;2.10;;;19.70;87.40;;;;;;5093184;28;20483;-64
2023/03/19 11:52:17;;;;;;;2.50;1.87;;;19.70;88.00;;;;;;5092980;28;20456;-63
2023/03/19 11:54:58;;;;;;;3.00;2.10;;;19.90;87.20;;;;;;5093182;28;20460;-63
2023/03/19 11:57:40;;;;;;;4.10;2.10;;;20.00;87.50;;;;;;5091930;28;20509;-63
2023/03/19 12:00:20;;;;;;;2.27;2.10;;;20.20;87.20;;;;;;5093066;28;20818;-63
2023/03/19 12:03:27;;;;;;;3.37;2.10;;;20.30;85.70;;;;;;5093120;28;20452;-64
2023/03/19 12:06:00;;;;;;;2.77;2.13;;;20.20;86.70;;;;;;5092697;28;20455;-63
2023/03/19 12:08:39;;;;;;;4.57;2.50;;;20.40;85.10;;;;;;5092758;28;20663;-63
2023/03/19 12:11:20;;;;;;;6.40;2.70;;;20.60;83.70;;;;;;5092525;28;20456;-63
2023/03/19 12:14:07;;;;;;;3.33;2.27;;;20.30;83.10;;;;;;5092875;28;20804;-63
2023/03/19 12:16:43;;;;;;;3.00;2.00;;;20.30;85.00;;;;;;5092500;28;20463;-63
2023/03/19 12:19:32;;;;;;;3.87;2.27;;;19.90;84.90;;;;;;5092639;28;20459;-63
2023/03/19 12:22:08;;;;;;;6.90;2.30;;;19.80;85.20;;;;;;5092563;28;20455;-63
2023/03/19 12:24:53;;;;;;;2.33;2.17;;;19.80;86.00;;;;;;5092741;28;20479;-64
2023/03/19 12:27:32;;;;;;;2.97;2.00;;;20.30;84.90;;;;;;5092528;28;20996;-64
2023/03/19 12:30:03;;;;;;;2.60;1.93;;;21.00;82.20;;;;;;5091612;28;20848;-63
2023/03/19 12:32:42;;;;;;;3.60;2.30;;;21.50;83.00;;;;;;5092423;28;20454;-64
2023/03/19 12:35:15;;;;;;;3.23;2.03;;;21.60;81.20;;;;;;5092503;28;20529;-64
2023/03/19 12:37:47;;;;;;;3.40;2.20;;;21.80;80.50;;;;;;5092471;28;20460;-63
2023/03/19 12:40:26;;;;;;;3.47;2.60;;;21.70;79.90;;;;;;5092741;28;20876;-63
2023/03/19 12:42:57;;;;;;;4.17;2.77;;;21.40;80.90;;;;;;5092457;28;20462;-64
2023/03/19 12:45:32;;;;;;;2.60;2.13;;;21.20;81.70;;;;;;5092222;28;21114;-64
2023/03/19 12:48:07;;;;;;;3.20;2.13;;;21.50;81.50;;;;;;5073414;28;20467;-64
2023/03/19 12:50:39;;;;;;;3.90;2.30;;;22.00;81.60;;;;;;5091936;28;20466;-64
2023/03/19 12:53:15;;;;;;;3.40;2.20;;;21.90;81.60;;;;;;5092071;28;20946;-63
2023/03/19 12:55:47;;;;;;;3.70;2.30;;;21.40;81.20;;;;;;5091967;28;20532;-64
2023/03/19 12:58:21;;;;;;;3.27;2.20;;;20.60;81.10;;;;;;5091959;28;20969;-64
2023/03/19 13:00:53;;;;;;;4.43;2.60;;;20.20;83.10;;;;;;5091786;28;20945;-63
2023/03/19 13:03:29;;;;;;;4.17;2.67;;;19.80;83.70;;;;;;5092148;28;20550;-63
2023/03/19 13:06:03;;;;;;;2.47;2.00;;;19.70;86.60;;;;;;5091700;28;20466;-63
2023/03/19 13:08:37;;;;;;;2.30;1.90;;;19.60;85.40;;;;;;5091784;28;20849;-64
2023/03/19 13:11:10;;;;;;;3.57;2.40;;;20.10;87.10;;;;;;5091687;28;20456;-63
2023/03/19 13:13:42;;;;;;;2.60;2.03;;;20.70;85.80;;;;;;5100929;28;20455;-64
2023/03/19 13:16:21;;;;;;;2.57;2.20;;;20.70;83.80;;;;;;5285154;22;20499;-63
2023/03/19 13:18:55;;;;;;;2.80;2.03;;;20.50;83.90;;;;;;5091718;28;20491;-64
2023/03/19 13:21:26;;;;;;;8.13;3.77;;;20.70;83.20;;;;;;5092322;28;20451;-63
2023/03/19 13:24:04;;;;;;;6.17;2.97;;;21.20;82.50;;;;;;5091619;28;20467;-63
2023/03/19 13:26:34;;;;;;;2.27;1.70;;;21.10;81.80;;;;;;5092298;28;20466;-63
2023/03/19 13:29:09;;;;;;;1.97;1.70;;;20.60;82.80;;;;;;5092338;28;20489;-63